createdAt,value
2019-01-19T00:01:55.963Z,63.62
2019-01-19T00:05:16.606Z,64.35
2019-01-19T00:08:29.728Z,64.86
2019-01-19T00:12:01.533Z,65.51
2019-01-19T00:14:44.158Z,65.49
2019-01-19T00:17:48.761Z,65.34
2019-01-19T00:20:43.917Z,65.63
2019-01-19T00:24:03.320Z,65.69
2019-01-19T00:27:13.430Z,65.69
2019-01-19T00:30:22.370Z,65.59
2019-01-19T00:33:27.712Z,64.84
2019-01-19T00:36:36.199Z,63.91
2019-01-19T00:39:15.444Z,63.63
2019-01-19T00:42:37.993Z,63.30
2019-01-19T00:45:51.584Z,63.79
2019-01-19T00:48:34.627Z,63.87
2019-01-19T00:51:46.523Z,64.12
2019-01-19T00:54:46.920Z,64.48
2019-01-19T00:57:35.678Z,64.66
2019-01-19T01:00:22.233Z,64.93
2019-01-19T01:03:47.608Z,64.92
2019-01-19T01:07:03.314Z,65.07
2019-01-19T01:10:31.695Z,65.37
2019-01-19T01:13:32.169Z,66.21
2019-01-19T01:16:42.346Z,66.46
2019-01-19T01:19:48.594Z,66.52
2019-01-19T01:22:34.256Z,66.36
2019-01-19T01:26:05.877Z,66.49
2019-01-19T01:29:16.318Z,66.54
2019-01-19T01:32:02.097Z,66.48
2019-01-19T01:35:32.835Z,66.69
2019-01-19T01:38:17.228Z,66.35
2019-01-19T01:41:28.130Z,66.24
2019-01-19T01:44:41.555Z,65.74
2019-01-19T01:48:06.594Z,65.55
2019-01-19T01:50:59.158Z,65.86
2019-01-19T01:54:21.431Z,65.96
2019-01-19T01:56:50.835Z,65.64
2019-01-19T01:59:49.743Z,65.60
2019-01-19T02:02:49.084Z,65.61
2019-01-19T02:05:59.091Z,65.75
2019-01-19T02:09:09.123Z,65.63
2019-01-19T02:12:02.473Z,65.52
2019-01-19T02:15:04.543Z,64.78
2019-01-19T02:17:56.971Z,64.91
2019-01-19T02:20:57.533Z,64.80
2019-01-19T02:24:13.786Z,64.96
2019-01-19T02:27:39.267Z,65.45
2019-01-19T02:30:32.766Z,65.77
2019-01-19T02:33:32.833Z,65.86
2019-01-19T02:36:58.218Z,66.36
2019-01-19T02:39:59.794Z,66.69
2019-01-19T02:43:05.381Z,67.01
2019-01-19T02:46:09.179Z,67.32
2019-01-19T02:49:44.048Z,67.42
2019-01-19T02:52:40.331Z,67.66
2019-01-19T02:55:46.780Z,67.59
2019-01-19T02:59:09.165Z,67.46
2019-01-19T03:02:34.507Z,67.70
2019-01-19T03:05:39.359Z,68.50
2019-01-19T03:09:11.008Z,68.56
2019-01-19T03:12:39.612Z,69.05
2019-01-19T03:15:41.660Z,69.55
2019-01-19T03:18:30.209Z,69.54
2019-01-19T03:21:19.375Z,69.38
2019-01-19T03:24:16.820Z,69.45
2019-01-19T03:27:44.936Z,69.51
2019-01-19T03:31:08.153Z,70.24
2019-01-19T03:34:26.049Z,70.50
2019-01-19T03:37:31.136Z,70.15
2019-01-19T03:40:41.874Z,70.22
2019-01-19T03:43:55.757Z,69.96
2019-01-19T03:47:00.905Z,70.37
2019-01-19T03:49:51.913Z,70.38
2019-01-19T03:52:45.238Z,70.80
2019-01-19T03:55:54.106Z,70.93
2019-01-19T03:58:39.666Z,70.84
2019-01-19T04:01:29.819Z,70.41
2019-01-19T04:04:34.006Z,69.68
2019-01-19T04:07:45.111Z,69.20
2019-01-19T04:10:42.271Z,68.76
2019-01-19T04:13:43.391Z,68.64
2019-01-19T04:16:48.972Z,68.47
2019-01-19T04:19:55.664Z,68.74
2019-01-19T04:22:47.103Z,67.98
2019-01-19T04:25:55.742Z,67.69
2019-01-19T04:28:27.073Z,66.97
2019-01-19T04:30:56.477Z,66.73
2019-01-19T04:33:25.924Z,67.11
2019-01-19T04:35:55.427Z,67.09
2019-01-19T04:38:24.917Z,67.19
2019-01-19T04:40:54.403Z,67.20
2019-01-19T04:43:23.822Z,67.25
2019-01-19T04:45:53.341Z,67.82
2019-01-19T04:48:23.311Z,68.30
2019-01-19T04:50:52.770Z,68.10
2019-01-19T04:53:22.184Z,68.26
2019-01-19T04:55:51.699Z,68.06
2019-01-19T04:58:21.177Z,68.32
2019-01-19T05:00:50.582Z,68.67
2019-01-19T05:03:20.017Z,68.63
2019-01-19T05:05:49.509Z,68.54
2019-01-19T05:08:18.994Z,68.71
2019-01-19T05:10:48.439Z,68.79
2019-01-19T05:13:17.855Z,68.08
2019-01-19T05:15:47.367Z,68.02
2019-01-19T05:18:17.322Z,68.25
2019-01-19T05:20:46.750Z,68.59
2019-01-19T05:23:16.227Z,68.69
2019-01-19T05:25:45.624Z,68.53
2019-01-19T05:28:15.040Z,68.27
2019-01-19T05:30:44.535Z,67.83
2019-01-19T05:33:14.028Z,67.49
2019-01-19T05:35:43.509Z,67.30
2019-01-19T05:38:12.919Z,67.14
2019-01-19T05:40:42.411Z,67.27
2019-01-19T05:43:11.907Z,67.55
2019-01-19T05:45:41.314Z,68.34
2019-01-19T05:48:10.728Z,68.23
2019-01-19T05:50:40.220Z,68.29
2019-01-19T05:53:09.713Z,68.03
2019-01-19T05:55:39.115Z,68.23
2019-01-19T05:58:08.562Z,68.26
2019-01-19T06:00:38.048Z,67.75
2019-01-19T06:03:07.501Z,67.49
2019-01-19T06:05:38.645Z,67.09
2019-01-19T06:08:08.139Z,66.77
2019-01-19T06:10:37.523Z,65.98
2019-01-19T06:13:06.952Z,65.83
2019-01-19T06:15:36.550Z,65.67
2019-01-19T06:18:06.256Z,64.92
2019-01-19T06:20:36.024Z,65.04
2019-01-19T06:23:05.448Z,64.31
2019-01-19T06:25:34.925Z,64.74
2019-01-19T06:28:04.521Z,65.15
2019-01-19T06:30:33.927Z,65.02
2019-01-19T06:33:03.344Z,65.35
2019-01-19T06:35:32.867Z,65.46
2019-01-19T06:38:02.377Z,64.83
2019-01-19T06:40:31.799Z,64.33
2019-01-19T06:43:01.298Z,64.22
2019-01-19T06:45:30.716Z,64.06
2019-01-19T06:48:00.170Z,64.23
2019-01-19T06:50:29.667Z,64.07
2019-01-19T06:52:59.159Z,64.22
2019-01-19T06:55:33.620Z,64.21
2019-01-19T06:58:03.158Z,64.38
2019-01-19T07:00:32.654Z,64.15
2019-01-19T07:03:02.150Z,63.39
2019-01-19T07:05:31.546Z,63.00
2019-01-19T07:08:01.027Z,62.43
2019-01-19T07:10:30.519Z,62.37
2019-01-19T07:13:01.638Z,62.46
2019-01-19T07:15:31.051Z,62.73
2019-01-19T07:18:00.468Z,62.45
2019-01-19T07:20:31.174Z,61.70
2019-01-19T07:23:00.651Z,61.52
2019-01-19T07:25:30.033Z,62.06
2019-01-19T07:27:59.444Z,62.34
2019-01-19T07:30:28.942Z,61.33
2019-01-19T07:32:58.461Z,60.82
2019-01-19T07:35:27.853Z,60.94
2019-01-19T07:37:57.271Z,60.88
2019-01-19T07:40:26.793Z,59.81
2019-01-19T07:42:59.155Z,59.58
2019-01-19T07:45:28.574Z,58.68
2019-01-19T07:47:57.996Z,57.89
2019-01-19T07:50:27.599Z,58.16
2019-01-19T07:52:57.093Z,58.46
2019-01-19T07:55:26.497Z,58.97
2019-01-19T07:57:56.832Z,58.43
2019-01-19T08:00:29.139Z,57.93
2019-01-19T08:03:00.234Z,58.42
2019-01-19T08:05:29.823Z,58.88
2019-01-19T08:07:59.292Z,58.42
2019-01-19T08:10:28.696Z,57.99
2019-01-19T08:12:58.174Z,57.23
2019-01-19T08:15:29.488Z,56.74
2019-01-19T08:17:59.144Z,56.22
2019-01-19T08:20:28.556Z,55.95
2019-01-19T08:22:58.023Z,55.91
2019-01-19T08:25:28.044Z,55.76
2019-01-19T08:27:57.558Z,55.82
2019-01-19T08:30:30.619Z,55.27
2019-01-19T08:33:00.437Z,54.40
2019-01-19T08:35:33.290Z,53.63
2019-01-19T08:38:02.741Z,53.96
2019-01-19T08:40:34.672Z,53.78
2019-01-19T08:43:12.653Z,53.91
2019-01-19T08:45:42.643Z,53.37
2019-01-19T08:48:12.374Z,54.12
2019-01-19T08:50:41.883Z,54.33
2019-01-19T08:53:11.441Z,53.98
2019-01-19T08:55:40.851Z,52.64
2019-01-19T08:58:10.310Z,52.24
2019-01-19T09:00:40.157Z,51.62
2019-01-19T09:03:09.598Z,51.14
2019-01-19T09:05:39.040Z,50.66
2019-01-19T09:08:08.495Z,49.97
2019-01-19T09:10:37.987Z,49.23
2019-01-19T09:13:07.448Z,48.15
2019-01-19T09:15:37.086Z,47.58
2019-01-19T09:18:06.636Z,46.77
2019-01-19T09:20:36.088Z,46.36
2019-01-19T09:23:20.847Z,45.76
2019-01-19T09:25:50.347Z,45.75
2019-01-19T09:28:21.360Z,45.35
2019-01-19T09:30:50.753Z,43.98
2019-01-19T09:33:20.710Z,43.60
2019-01-19T09:35:51.299Z,43.54
2019-01-19T09:38:20.766Z,42.89
2019-01-19T09:40:50.185Z,43.04
2019-01-19T09:43:19.652Z,41.70
2019-01-19T09:45:49.151Z,42.33
2019-01-19T09:48:18.598Z,42.32
2019-01-19T09:50:47.996Z,43.30
2019-01-19T09:53:17.489Z,42.95
2019-01-19T09:55:48.470Z,42.92
2019-01-19T09:58:17.917Z,42.03
2019-01-19T10:00:49.135Z,41.72
2019-01-19T10:03:19.056Z,41.34
2019-01-19T10:05:48.670Z,41.63
2019-01-19T10:08:18.092Z,42.50
2019-01-19T10:10:47.713Z,42.92
2019-01-19T10:13:17.183Z,43.27
2019-01-19T10:15:46.689Z,42.70
2019-01-19T10:18:16.116Z,43.11
2019-01-19T10:20:45.550Z,44.00
2019-01-19T10:23:16.744Z,43.90
2019-01-19T10:25:46.246Z,43.82
2019-01-19T10:28:15.779Z,44.23
2019-01-19T10:30:51.734Z,43.90
2019-01-19T10:33:21.582Z,44.41
2019-01-19T10:35:56.197Z,44.11
2019-01-19T10:38:25.650Z,44.61
2019-01-19T10:40:55.150Z,44.53
2019-01-19T10:43:24.580Z,44.34
2019-01-19T10:45:53.987Z,44.23
2019-01-19T10:48:23.443Z,44.02
2019-01-19T10:50:52.956Z,43.86
2019-01-19T10:53:22.388Z,42.67
2019-01-19T10:55:53.212Z,41.37
2019-01-19T10:58:22.855Z,40.68
2019-01-19T11:00:52.359Z,39.85
2019-01-19T11:03:21.803Z,38.43
2019-01-19T11:05:54.216Z,37.36
2019-01-19T11:08:24.090Z,37.25
2019-01-19T11:10:53.655Z,36.35
2019-01-19T11:13:23.106Z,36.13
2019-01-19T11:15:52.497Z,34.49
2019-01-19T11:18:21.949Z,33.81
2019-01-19T11:20:51.479Z,32.20
2019-01-19T11:23:20.937Z,31.21
2019-01-19T11:25:50.429Z,29.10
2019-01-19T11:28:19.971Z,30.75
2019-01-19T11:30:49.392Z,30.59
2019-01-19T11:33:21.383Z,28.94
2019-01-19T11:35:50.871Z,27.12
2019-01-19T11:38:20.488Z,26.21
2019-01-19T11:40:49.873Z,25.48
2019-01-19T11:43:19.319Z,24.97
2019-01-19T11:45:48.830Z,23.89
2019-01-19T11:48:18.280Z,23.88
2019-01-19T11:50:47.684Z,23.93
2019-01-19T11:53:17.134Z,23.53
2019-01-19T11:55:46.644Z,22.60
2019-01-19T11:58:16.091Z,21.93
2019-01-19T12:00:45.543Z,21.63
2019-01-19T12:03:14.998Z,21.55
2019-01-19T12:05:44.494Z,21.18
2019-01-19T12:08:19.434Z,21.18
2019-01-19T12:10:47.392Z,21.54
2019-01-19T12:13:16.840Z,22.62
2019-01-19T12:15:46.238Z,23.86
2019-01-19T12:18:15.709Z,25.34
2019-01-19T12:20:50.235Z,26.49
2019-01-19T12:23:19.669Z,27.56
2019-01-19T12:25:49.071Z,28.25
2019-01-19T12:28:18.523Z,29.21
2019-01-19T12:30:48.130Z,30.52
2019-01-19T12:33:19.945Z,31.12
2019-01-19T12:35:49.360Z,31.89
2019-01-19T12:38:26.771Z,33.24
2019-01-19T12:40:52.027Z,33.82
2019-01-19T12:43:23.246Z,34.50
2019-01-19T12:45:55.411Z,34.80
2019-01-19T12:48:24.855Z,35.20
2019-01-19T12:50:54.319Z,35.17
2019-01-19T12:53:23.775Z,36.24
2019-01-19T12:55:53.316Z,37.29
2019-01-19T12:58:22.782Z,38.33
2019-01-19T13:00:52.182Z,38.56
2019-01-19T13:03:21.690Z,38.54
2019-01-19T13:06:03.738Z,38.66
2019-01-19T13:08:34.465Z,38.52
2019-01-19T13:11:37.285Z,39.83
2019-01-19T13:14:07.046Z,39.60
2019-01-19T13:17:20.080Z,38.89
2019-01-19T13:20:09.749Z,39.15
2019-01-19T13:23:21.916Z,39.95
2019-01-19T13:26:27.031Z,40.49
2019-01-19T13:29:28.667Z,41.32
2019-01-19T13:32:33.261Z,41.96
2019-01-19T13:35:42.260Z,42.82
2019-01-19T13:38:25.118Z,42.81
2019-01-19T13:41:37.107Z,43.31
2019-01-19T13:44:19.145Z,44.17
2019-01-19T13:47:35.576Z,44.94
2019-01-19T13:50:43.413Z,45.17
2019-01-19T13:53:49.326Z,45.71
2019-01-19T13:56:59.758Z,46.94
2019-01-19T14:00:05.875Z,47.27
2019-01-19T14:03:13.743Z,47.95
2019-01-19T14:06:11.189Z,47.75
2019-01-19T14:09:17.524Z,48.04
2019-01-19T14:12:28.006Z,48.49
2019-01-19T14:15:50.331Z,48.78
2019-01-19T14:18:47.826Z,49.15
2019-01-19T14:22:13.364Z,48.41
2019-01-19T14:25:19.599Z,48.82
2019-01-19T14:28:26.912Z,48.47
2019-01-19T14:31:35.372Z,48.59
2019-01-19T14:34:22.957Z,49.24
2019-01-19T14:37:37.390Z,50.15
2019-01-19T14:40:21.206Z,51.49
2019-01-19T14:43:34.515Z,52.81
2019-01-19T14:46:47.357Z,53.24
2019-01-19T14:49:52.602Z,53.65
2019-01-19T14:52:56.342Z,54.12
2019-01-19T14:55:48.391Z,56.12
2019-01-19T14:59:01.363Z,57.27
2019-01-19T15:02:29.689Z,57.55
2019-01-19T15:05:19.215Z,58.55
2019-01-19T15:08:22.522Z,60.12
2019-01-19T15:11:06.691Z,60.45
2019-01-19T15:14:29.603Z,60.80
2019-01-19T15:17:31.412Z,61.03
2019-01-19T15:20:43.598Z,61.41
2019-01-19T15:23:23.368Z,61.83
2019-01-19T15:26:36.651Z,62.58
2019-01-19T15:29:32.382Z,62.99
2019-01-19T15:32:36.287Z,63.26
2019-01-19T15:35:48.429Z,63.46
2019-01-19T15:38:55.914Z,63.32
2019-01-19T15:42:01.990Z,63.35
2019-01-19T15:44:58.647Z,63.13
2019-01-19T15:48:20.233Z,62.86
2019-01-19T15:51:08.397Z,62.65
2019-01-19T15:53:52.032Z,62.53
2019-01-19T15:57:03.675Z,62.54
2019-01-19T16:00:08.861Z,62.33
2019-01-19T16:03:15.187Z,61.58
2019-01-19T16:06:24.598Z,61.40
2019-01-19T16:09:22.995Z,61.30
2019-01-19T16:12:31.100Z,61.46
2019-01-19T16:15:50.338Z,61.83
2019-01-19T16:19:03.921Z,61.61
2019-01-19T16:22:07.860Z,61.92
2019-01-19T16:25:13.843Z,62.37
2019-01-19T16:28:22.015Z,62.69
2019-01-19T16:31:31.188Z,62.77
2019-01-19T16:34:35.882Z,62.87
2019-01-19T16:38:07.450Z,62.96
2019-01-19T16:41:26.886Z,62.88
2019-01-19T16:44:32.664Z,62.88
2019-01-19T16:47:32.612Z,63.04
2019-01-19T16:50:41.580Z,63.29
2019-01-19T16:53:30.363Z,63.49
2019-01-19T16:56:40.481Z,63.99
2019-01-19T16:59:47.056Z,64.29
2019-01-19T17:03:16.184Z,64.66
2019-01-19T17:06:07.122Z,64.91
2019-01-19T17:09:22.058Z,65.07
2019-01-19T17:12:26.305Z,65.21
2019-01-19T17:15:45.069Z,65.13
2019-01-19T17:18:53.369Z,65.23
2019-01-19T17:22:18.151Z,65.67
2019-01-19T17:25:46.065Z,65.79
2019-01-19T17:29:01.276Z,66.07
2019-01-19T17:31:49.005Z,66.73
2019-01-19T17:35:01.387Z,67.78
2019-01-19T17:37:45.652Z,67.88
2019-01-19T17:40:51.580Z,67.95
2019-01-19T17:43:38.327Z,68.26
2019-01-19T17:46:49.535Z,68.53
2019-01-19T17:49:41.461Z,69.01
2019-01-19T17:52:59.274Z,69.29
2019-01-19T17:56:12.952Z,69.64
2019-01-19T17:59:23.501Z,69.97
2019-01-19T18:02:48.867Z,70.18
2019-01-19T18:05:59.091Z,70.79
2019-01-19T18:09:12.457Z,71.20
2019-01-19T18:12:05.577Z,71.72
2019-01-19T18:15:14.331Z,72.17
2019-01-19T18:18:45.127Z,72.75
2019-01-19T18:21:29.525Z,73.37
2019-01-19T18:24:37.784Z,73.68
2019-01-19T18:27:37.805Z,73.91
2019-01-19T18:30:45.348Z,73.72
2019-01-19T18:33:39.785Z,73.78
2019-01-19T18:36:40.284Z,74.15
2019-01-19T18:39:41.135Z,74.50
2019-01-19T18:42:53.692Z,74.44
2019-01-19T18:45:54.153Z,74.45
2019-01-19T18:48:48.592Z,74.78
2019-01-19T18:51:52.737Z,74.85
2019-01-19T18:54:43.248Z,74.95
2019-01-19T18:58:12.627Z,75.03
2019-01-19T19:01:32.086Z,74.70
2019-01-19T19:04:36.602Z,74.92
2019-01-19T19:07:33.480Z,75.08
2019-01-19T19:10:48.469Z,74.97
2019-01-19T19:13:43.473Z,74.98
2019-01-19T19:16:55.657Z,74.77
2019-01-19T19:19:46.189Z,75.05
2019-01-19T19:23:05.292Z,75.25
2019-01-19T19:26:04.470Z,75.27
2019-01-19T19:29:02.721Z,75.12
2019-01-19T19:32:01.731Z,75.16
2019-01-19T19:35:07.093Z,75.20
2019-01-19T19:38:16.056Z,75.56
2019-01-19T19:41:06.164Z,75.87
2019-01-19T19:43:49.366Z,75.77
2019-01-19T19:46:57.908Z,75.69
2019-01-19T19:50:16.907Z,75.63
2019-01-19T19:52:46.315Z,75.57
2019-01-19T19:55:15.020Z,75.71
2019-01-19T19:57:47.053Z,75.51
2019-01-19T20:00:16.714Z,75.43
2019-01-19T20:02:46.218Z,75.48
2019-01-19T20:05:16.711Z,75.94
2019-01-19T20:07:46.122Z,76.37
2019-01-19T20:10:18.977Z,76.63
2019-01-19T20:12:48.494Z,76.71
2019-01-19T20:15:18.055Z,76.78
2019-01-19T20:17:47.496Z,77.04
2019-01-19T20:20:17.307Z,77.32
2019-01-19T20:22:47.082Z,77.28
2019-01-19T20:25:19.235Z,76.73
2019-01-19T20:27:48.645Z,76.09
2019-01-19T20:30:18.367Z,75.72
2019-01-19T20:32:48.006Z,75.50
2019-01-19T20:35:17.565Z,75.70
2019-01-19T20:37:47.031Z,75.01
2019-01-19T20:40:16.488Z,73.90
2019-01-19T20:42:45.919Z,73.83
2019-01-19T20:45:15.534Z,73.74
2019-01-19T20:47:45.061Z,73.59
2019-01-19T20:50:14.732Z,73.44
2019-01-19T20:52:44.613Z,73.68
2019-01-19T20:55:14.273Z,73.57
2019-01-19T20:57:43.919Z,73.33
2019-01-19T21:00:16.188Z,74.24
2019-01-19T21:02:45.610Z,75.30
2019-01-19T21:05:15.051Z,75.63
2019-01-19T21:07:44.556Z,74.97
2019-01-19T21:10:14.108Z,74.70
2019-01-19T21:12:43.510Z,74.25
2019-01-19T21:15:15.253Z,73.83
2019-01-19T21:17:44.959Z,73.33
2019-01-19T21:20:15.168Z,73.52
2019-01-19T21:22:44.661Z,73.79
2019-01-19T21:25:14.465Z,73.87
2019-01-19T21:27:43.864Z,74.29
2019-01-19T21:30:14.408Z,75.19
2019-01-19T21:32:43.897Z,75.60
2019-01-19T21:35:13.558Z,75.72
2019-01-19T21:37:42.948Z,75.78
2019-01-19T21:40:12.832Z,75.47
2019-01-19T21:42:42.366Z,75.52
2019-01-19T21:45:14.569Z,75.47
2019-01-19T21:47:43.982Z,75.41
2019-01-19T21:50:13.667Z,75.57
2019-01-19T21:52:43.246Z,75.57
2019-01-19T21:55:12.700Z,75.79
2019-01-19T21:57:42.100Z,76.24
2019-01-19T22:00:13.877Z,76.45
2019-01-19T22:02:43.376Z,76.63
2019-01-19T22:05:13.034Z,76.70
2019-01-19T22:07:42.521Z,76.72
2019-01-19T22:10:14.441Z,76.70
2019-01-19T22:12:43.982Z,76.72
2019-01-19T22:15:15.597Z,76.14
2019-01-19T22:17:45.089Z,75.99
2019-01-19T22:20:15.622Z,76.20
2019-01-19T22:22:45.131Z,75.77
2019-01-19T22:25:15.425Z,75.96
2019-01-19T22:27:49.352Z,76.35
2019-01-19T22:30:21.153Z,76.27
2019-01-19T22:32:52.851Z,76.44
2019-01-19T22:35:24.267Z,76.61
2019-01-19T22:37:53.767Z,77.42
2019-01-19T22:40:23.375Z,77.03
2019-01-19T22:42:54.258Z,76.68
2019-01-19T22:45:23.760Z,76.69
2019-01-19T22:47:53.256Z,77.21
2019-01-19T22:50:22.812Z,77.71
2019-01-19T22:52:52.246Z,78.06
2019-01-19T22:55:22.051Z,77.91
2019-01-19T22:57:51.579Z,77.77
2019-01-19T23:00:56.116Z,77.97
2019-01-19T23:03:25.607Z,78.11
2019-01-19T23:05:55.118Z,78.36
2019-01-19T23:08:24.610Z,77.58
2019-01-19T23:11:00.942Z,77.24
2019-01-19T23:13:25.345Z,77.32
2019-01-19T23:15:54.870Z,77.36
2019-01-19T23:18:24.355Z,76.96
2019-01-19T23:20:53.860Z,76.92
2019-01-19T23:23:23.360Z,77.09
2019-01-19T23:25:52.849Z,77.22
2019-01-19T23:28:22.341Z,77.62
2019-01-19T23:30:51.838Z,77.45
2019-01-19T23:33:21.327Z,77.76
2019-01-19T23:35:50.761Z,77.62
2019-01-19T23:38:20.169Z,77.09
2019-01-19T23:40:49.634Z,76.59
2019-01-19T23:43:19.216Z,76.55
2019-01-19T23:45:48.664Z,75.89
2019-01-19T23:48:18.053Z,75.86
2019-01-19T23:50:47.515Z,75.93
2019-01-19T23:53:17.011Z,76.28
2019-01-19T23:55:46.452Z,76.02
2019-01-19T23:58:15.910Z,76.29
